| time (UTC) | temp C | wind direction | speed KPH | gust KPH | rain 1hr cm | rain 24hr cm | rain mn cm | humidity % | barometer mb |
| 20260505010053 | 21 | 156 | 6.4 | 12.9 | 0.00 | 0.00 | 0.00 | 53 | 1004.0 |
| 20260505004549 | 21 | 226 | 4.8 | 12.9 | 0.00 | 0.00 | 0.00 | 52 | 1003.9 |
| 20260505003048 | 21 | 184 | 6.4 | 16.1 | 0.00 | 0.00 | 0.00 | 51 | 1003.9 |
| 20260505001546 | 22 | 145 | 4.8 | 14.5 | 0.00 | 0.00 | 0.00 | 52 | 1004.0 |
| 20260505000049 | 22 | 215 | 6.4 | 14.5 | 0.00 | 0.00 | 0.00 | 52 | 1004.2 |
| 20260504234544 | 22 | 132 | 3.2 | 17.7 | 0.00 | 0.00 | 0.00 | 51 | 1004.4 |
| 20260504233044 | 22 | 197 | 11.3 | 19.3 | 0.00 | 0.00 | 0.00 | 51 | 1004.5 |
| 20260504231542 | 22 | 163 | 4.8 | 12.9 | 0.00 | 0.00 | 0.00 | 51 | 1004.6 |
| 20260504230040 | 22 | 189 | 6.4 | 12.9 | 0.00 | 0.00 | 0.00 | 51 | 1004.7 |
| 20260504224537 | 22 | 225 | 8.0 | 16.1 | 0.00 | 0.00 | 0.00 | 51 | 1004.9 |
| 20260504223035 | 22 | 175 | 8.0 | 17.7 | 0.00 | 0.00 | 0.00 | 53 | 1005.2 |
| 20260504221536 | 22 | 178 | 4.8 | 19.3 | 0.00 | 0.00 | 0.00 | 53 | 1005.3 |
| 20260504220031 | 21 | 196 | 4.8 | 16.1 | 0.00 | 0.00 | 0.00 | 55 | 1005.1 |
| 20260504214530 | 21 | 211 | 4.8 | 16.1 | 0.00 | 0.00 | 0.00 | 54 | 1005.2 |
| 20260504213027 | 21 | 169 | 8.0 | 22.5 | 0.00 | 0.00 | 0.00 | 53 | 1005.8 |
| 20260504211526 | 21 | 164 | 9.7 | 29.0 | 0.00 | 0.00 | 0.00 | 54 | 1005.8 |
| 20260504210024 | 20 | 207 | 8.0 | 16.1 | 0.00 | 0.00 | 0.00 | 60 | 1006.1 |
| 20260504204522 | 20 | 147 | 8.0 | 20.9 | 0.00 | 0.00 | 0.00 | 62 | 1006.0 |
| 20260504203018 | 19 | 80 | 1.6 | 12.9 | 0.00 | 0.00 | 0.00 | 62 | 1006.5 |
| 20260504201517 | 19 | 199 | 6.4 | 22.5 | 0.00 | 0.00 | 0.00 | 62 | 1007.0 |
| 20260504200033 | 19 | 200 | 11.3 | 27.4 | 0.00 | 0.00 | 0.00 | 61 | 1006.9 |
| 20260504194520 | 19 | 214 | 9.7 | 20.9 | 0.00 | 0.00 | 0.00 | 62 | 1006.9 |
| 20260504193014 | 19 | 157 | 8.0 | 19.3 | 0.00 | 0.00 | 0.00 | 62 | 1006.9 |
| 20260504191527 | 19 | 142 | 6.4 | 19.3 | 0.00 | 0.00 | 0.00 | 63 | 1007.5 |
| 20260504190014 | 19 | 219 | 9.7 | 19.3 | 0.00 | 0.00 | 0.00 | 61 | 1007.9 |
| 20260504184515 | 20 | 187 | 12.9 | 29.0 | 0.00 | 0.00 | 0.00 | 57 | 1008.1 |
| 20260504183024 | 20 | 194 | 12.9 | 25.7 | 0.00 | 0.00 | 0.00 | 59 | 1007.9 |
| 20260504181522 | 20 | 234 | 14.5 | 24.1 | 0.00 | 0.00 | 0.00 | 58 | 1007.5 |
| 20260504180009 | 20 | 189 | 12.9 | 29.0 | 0.00 | 0.00 | 0.00 | 58 | 1007.3 |
| 20260504174507 | 20 | 197 | 11.3 | 24.1 | 0.00 | 0.00 | 0.00 | 59 | 1006.9 |
| 20260504173004 | 19 | 190 | 11.3 | 22.5 | 0.00 | 0.00 | 0.00 | 60 | 1007.1 |
| 20260504171502 | 20 | 196 | 8.0 | 20.9 | 0.00 | 0.00 | 0.00 | 60 | 1007.3 |
| 20260504170110 | 19 | 149 | 12.9 | 24.1 | 0.00 | 0.00 | 0.00 | 60 | 1007.5 |
| 20260504081544 | 9 | 154 | 0.0 | 3.2 | 0.00 | 0.00 | 0.00 | 70 | 1010.2 |
| 20260504050016 | 11 | 171 | 1.6 | 4.8 | 0.00 | 0.00 | 0.00 | 61 | 1011.9 |
| 20260504044520 | 11 | 195 | 3.2 | 11.3 | 0.00 | 0.00 | 0.00 | 60 | 1012.0 |
| 20260504043011 | 12 | 185 | 1.6 | 8.0 | 0.00 | 0.00 | 0.00 | 58 | 1012.1 |
| 20260504041506 | 12 | 284 | 0.0 | 9.7 | 0.00 | 0.00 | 0.00 | 58 | 1012.2 |
| 20260504040003 | 12 | 163 | 1.6 | 11.3 | 0.00 | 0.00 | 0.00 | 57 | 1012.4 |
| 20260504034502 | 12 | 165 | 3.2 | 9.7 | 0.00 | 0.00 | 0.00 | 56 | 1012.5 |
| 20260504033002 | 12 | 151 | 0.0 | 6.4 | 0.00 | 0.00 | 0.00 | 55 | 1012.6 |
| 20260504031501 | 12 | 178 | 1.6 | 4.8 | 0.00 | 0.00 | 0.00 | 54 | 1012.6 |
| 20260504030105 | 12 | 169 | 1.6 | 8.0 | 0.00 | 0.00 | 0.00 | 54 | 1012.8 |
| 20260504024559 | 12 | 205 | 3.2 | 11.3 | 0.00 | 0.00 | 0.00 | 54 | 1012.8 |
| 20260504023105 | 12 | 192 | 1.6 | 4.8 | 0.00 | 0.00 | 0.00 | 55 | 1013.0 |
| 20260504021559 | 11 | 193 | 1.6 | 6.4 | 0.00 | 0.00 | 0.00 | 59 | 1013.0 |
| 20260504014558 | 10 | 90 | 0.0 | 0.0 | 0.00 | 0.00 | 0.00 | 75 | 1013.1 |
| 20260504013109 | 10 | 90 | 0.0 | 0.0 | 0.00 | 0.00 | 0.00 | 74 | 1012.9 |
| 20260504011557 | 10 | 90 | 0.0 | 0.0 | 0.00 | 0.00 | 0.00 | 72 | 1012.9 |